createdAt,value
2018-08-14T00:00:40.284Z,99.90
2018-08-14T00:03:08.924Z,99.90
2018-08-14T00:05:36.721Z,99.90
2018-08-14T00:08:04.351Z,99.90
2018-08-14T00:10:32.049Z,99.90
2018-08-14T00:12:59.861Z,99.90
2018-08-14T00:15:27.474Z,99.90
2018-08-14T00:17:58.345Z,99.90
2018-08-14T00:20:26.001Z,99.90
2018-08-14T00:22:53.666Z,99.90
2018-08-14T00:25:21.317Z,99.90
2018-08-14T00:27:50.129Z,99.90
2018-08-14T00:30:19.173Z,99.90
2018-08-14T00:32:46.832Z,99.90
2018-08-14T00:35:14.425Z,99.90
2018-08-14T00:37:42.039Z,99.90
2018-08-14T00:40:10.771Z,99.90
2018-08-14T00:42:38.422Z,99.90
2018-08-14T00:45:07.329Z,99.90
2018-08-14T00:47:35.033Z,99.90
2018-08-14T00:50:02.758Z,99.90
2018-08-14T00:52:30.424Z,99.90
2018-08-14T00:54:58.196Z,99.90
2018-08-14T00:57:25.845Z,99.90
2018-08-14T00:59:53.516Z,99.90
2018-08-14T01:02:21.146Z,99.90
2018-08-14T01:04:48.798Z,99.90
2018-08-14T01:07:16.413Z,99.90
2018-08-14T01:09:44.092Z,99.90
2018-08-14T01:12:11.766Z,99.90
2018-08-14T01:14:39.425Z,99.90
2018-08-14T01:17:07.123Z,99.90
2018-08-14T01:19:34.833Z,99.90
2018-08-14T01:22:02.561Z,99.90
2018-08-14T01:24:30.206Z,99.90
2018-08-14T01:26:57.825Z,99.90
2018-08-14T01:29:25.446Z,99.90
2018-08-14T01:31:53.090Z,99.90
2018-08-14T01:34:20.958Z,99.90
2018-08-14T01:36:49.119Z,99.90
2018-08-14T01:39:16.765Z,99.90
2018-08-14T01:41:44.406Z,99.90
2018-08-14T01:44:12.070Z,99.90
2018-08-14T01:46:43.085Z,99.90
2018-08-14T01:49:10.758Z,99.90
2018-08-14T01:51:38.502Z,99.90
2018-08-14T01:54:06.954Z,99.90
2018-08-14T01:59:23.016Z,99.90
2018-08-14T02:01:50.616Z,99.90
2018-08-14T02:04:18.289Z,99.90
2018-08-14T02:06:47.035Z,99.90
2018-08-14T02:09:14.687Z,99.90
2018-08-14T02:11:42.350Z,99.90
2018-08-14T02:14:10.024Z,99.90
2018-08-14T02:16:37.641Z,99.90
2018-08-14T02:19:05.231Z,99.90
2018-08-14T02:21:33.059Z,99.90
2018-08-14T02:24:00.765Z,99.90
2018-08-14T02:26:28.346Z,99.90
2018-08-14T02:28:55.979Z,99.90
2018-08-14T02:31:24.662Z,99.90
2018-08-14T02:33:52.326Z,99.90
2018-08-14T02:36:19.929Z,99.90
2018-08-14T02:38:47.576Z,99.90
2018-08-14T02:41:15.199Z,99.90
2018-08-14T02:44:00.971Z,99.90
2018-08-14T02:46:28.669Z,99.90
2018-08-14T02:48:56.259Z,99.90
2018-08-14T02:51:23.852Z,99.90
2018-08-14T02:53:51.445Z,99.90
2018-08-14T02:56:19.047Z,99.90
2018-08-14T02:58:46.629Z,99.90
2018-08-14T03:01:14.271Z,99.90
2018-08-14T03:03:41.886Z,99.90
2018-08-14T03:06:09.561Z,99.90
2018-08-14T03:08:37.234Z,99.90
2018-08-14T03:11:04.892Z,99.90
2018-08-14T03:13:36.048Z,99.90
2018-08-14T03:16:03.684Z,99.90
2018-08-14T03:18:31.632Z,99.90
2018-08-14T03:20:59.297Z,99.90
2018-08-14T03:23:34.606Z,99.90
2018-08-14T03:26:08.039Z,99.90
2018-08-14T03:28:36.763Z,99.90
2018-08-14T03:31:04.462Z,99.90
2018-08-14T03:33:34.225Z,99.90
2018-08-14T03:36:01.902Z,99.90
2018-08-14T03:38:29.542Z,99.90
2018-08-14T03:43:44.062Z,99.90
2018-08-14T03:46:16.022Z,99.90
2018-08-14T03:48:43.720Z,99.90
2018-08-14T03:51:20.913Z,99.90
2018-08-14T03:53:48.569Z,99.90
2018-08-14T03:56:16.239Z,99.90
2018-08-14T03:58:43.901Z,99.90
2018-08-14T04:01:11.616Z,99.90
2018-08-14T04:03:39.226Z,99.90
2018-08-14T04:06:06.958Z,99.90
2018-08-14T04:08:34.520Z,99.90
2018-08-14T04:11:02.139Z,99.90
2018-08-14T04:13:29.780Z,99.90
2018-08-14T04:15:57.541Z,99.90
2018-08-14T04:18:25.172Z,99.90
2018-08-14T04:20:52.805Z,99.90
2018-08-14T04:23:20.495Z,99.90
2018-08-14T04:25:48.086Z,99.90
2018-08-14T04:28:15.718Z,99.90
2018-08-14T04:30:43.386Z,99.90
2018-08-14T04:33:11.009Z,99.90
2018-08-14T04:35:38.628Z,99.90
2018-08-14T04:38:06.581Z,99.90
2018-08-14T04:40:34.205Z,99.90
2018-08-14T04:43:01.827Z,99.90
2018-08-14T04:45:29.798Z,99.90
2018-08-14T04:47:57.407Z,99.90
2018-08-14T04:50:24.997Z,99.90
2018-08-14T04:52:52.611Z,99.90
2018-08-14T04:55:20.266Z,99.90
2018-08-14T04:57:47.903Z,99.90
2018-08-14T05:00:16.074Z,99.90
2018-08-14T05:02:44.702Z,99.90
2018-08-14T05:05:12.731Z,99.90
2018-08-14T05:07:40.399Z,99.90
2018-08-14T05:10:08.791Z,99.90
2018-08-14T05:12:36.920Z,99.90
2018-08-14T05:15:05.065Z,99.90
2018-08-14T05:17:32.679Z,99.90
2018-08-14T05:20:00.396Z,99.90
2018-08-14T05:22:28.166Z,99.90
2018-08-14T05:24:55.798Z,99.90
2018-08-14T05:27:23.418Z,99.90
2018-08-14T05:29:51.065Z,99.90
2018-08-14T05:32:18.661Z,99.90
2018-08-14T05:34:46.310Z,99.90
2018-08-14T05:37:13.928Z,99.90
2018-08-14T05:39:41.542Z,99.90
2018-08-14T05:42:09.145Z,99.90
2018-08-14T05:44:36.901Z,99.90
2018-08-14T05:47:04.607Z,99.90
2018-08-14T05:49:32.282Z,99.90
2018-08-14T05:52:00.112Z,99.90
2018-08-14T05:54:29.234Z,99.90
2018-08-14T05:56:58.300Z,99.90
2018-08-14T05:59:26.852Z,99.90
2018-08-14T06:01:54.843Z,99.90
2018-08-14T06:04:22.629Z,99.90
2018-08-14T06:06:50.969Z,99.90
2018-08-14T06:09:19.745Z,99.90
2018-08-14T06:11:47.345Z,99.90
2018-08-14T06:14:15.094Z,99.90
2018-08-14T06:20:10.264Z,99.90
2018-08-14T06:22:43.020Z,99.90
2018-08-14T06:25:12.923Z,99.90
2018-08-14T06:28:06.339Z,99.90
2018-08-14T06:30:34.624Z,99.90
2018-08-14T06:33:05.211Z,99.90
2018-08-14T06:35:37.680Z,99.90
2018-08-14T06:38:06.971Z,99.90
2018-08-14T06:40:36.796Z,99.90
2018-08-14T06:43:27.031Z,99.90
2018-08-14T06:45:56.123Z,99.90
2018-08-14T06:48:24.691Z,99.90
2018-08-14T06:53:33.641Z,99.90
2018-08-14T06:58:43.517Z,99.90
2018-08-14T07:01:11.011Z,99.90
2018-08-14T07:03:38.449Z,99.90
2018-08-14T07:06:06.109Z,99.90
2018-08-14T07:08:35.802Z,99.90
2018-08-14T07:11:03.525Z,99.90
2018-08-14T07:13:32.645Z,99.90
2018-08-14T07:16:00.375Z,99.90
2018-08-14T07:18:28.083Z,99.90
2018-08-14T07:20:59.589Z,99.90
2018-08-14T07:23:27.339Z,99.90
2018-08-14T07:25:55.068Z,99.90
2018-08-14T07:28:28.065Z,99.90
2018-08-14T07:30:55.825Z,99.90
2018-08-14T07:33:23.748Z,99.90
2018-08-14T07:35:51.502Z,99.90
2018-08-14T07:38:19.399Z,99.90
2018-08-14T07:40:48.178Z,99.90
2018-08-14T07:43:15.957Z,99.90
2018-08-14T07:45:43.927Z,99.90
2018-08-14T07:48:11.572Z,99.90
2018-08-14T07:50:39.315Z,99.90
2018-08-14T07:53:07.292Z,99.90
2018-08-14T07:55:48.867Z,99.90
2018-08-14T07:58:26.430Z,99.90
2018-08-14T08:00:58.902Z,99.90
2018-08-14T08:06:15.166Z,99.90
2018-08-14T08:08:43.978Z,99.90
2018-08-14T08:14:00.265Z,99.90
2018-08-14T08:16:37.587Z,99.90
2018-08-14T08:19:05.810Z,99.90
2018-08-14T08:24:24.566Z,99.90
2018-08-14T08:26:52.334Z,99.90
2018-08-14T08:29:20.069Z,99.90
2018-08-14T08:31:50.655Z,99.90
2018-08-14T08:34:18.358Z,99.90
2018-08-14T08:36:46.100Z,99.90
2018-08-14T08:39:14.778Z,99.90
2018-08-14T08:41:42.542Z,99.90
2018-08-14T08:44:10.286Z,99.90
2018-08-14T08:46:43.038Z,99.90
2018-08-14T08:49:10.914Z,99.90
2018-08-14T08:51:38.674Z,99.90
2018-08-14T08:54:06.455Z,99.90
2018-08-14T08:56:34.151Z,99.90
2018-08-14T08:59:01.928Z,99.90
2018-08-14T09:01:29.727Z,99.90
2018-08-14T09:03:57.451Z,99.90
2018-08-14T09:06:25.219Z,99.90
2018-08-14T09:08:54.152Z,99.90
2018-08-14T09:11:21.857Z,99.20
2018-08-14T09:13:49.737Z,97.70
2018-08-14T09:16:19.594Z,97.60
2018-08-14T09:18:47.356Z,97.20
2018-08-14T09:21:15.110Z,97.30
2018-08-14T09:23:44.631Z,97.40
2018-08-14T09:26:13.549Z,97.70
2018-08-14T09:28:41.395Z,97.00
2018-08-14T09:31:09.146Z,95.80
2018-08-14T09:33:37.999Z,95.50
2018-08-14T09:36:11.018Z,95.30
2018-08-14T09:38:38.792Z,94.90
2018-08-14T09:41:09.609Z,95.30
2018-08-14T09:43:37.355Z,95.60
2018-08-14T09:46:05.229Z,95.60
2018-08-14T09:48:32.971Z,95.80
2018-08-14T09:51:01.839Z,95.60
2018-08-14T09:53:29.762Z,95.90
2018-08-14T09:55:57.510Z,96.20
2018-08-14T09:58:25.284Z,95.80
2018-08-14T10:00:58.382Z,95.90
2018-08-14T10:03:32.077Z,95.90
2018-08-14T10:06:05.168Z,95.50
2018-08-14T10:08:32.968Z,95.90
2018-08-14T10:11:00.695Z,95.60
2018-08-14T10:13:34.612Z,95.80
2018-08-14T10:16:02.346Z,96.10
2018-08-14T10:18:30.029Z,96.00
2018-08-14T10:20:57.775Z,95.90
2018-08-14T10:23:40.088Z,96.10
2018-08-14T10:26:07.894Z,96.00
2018-08-14T10:28:35.604Z,96.30
2018-08-14T10:31:03.143Z,96.10
2018-08-14T10:33:38.954Z,95.50
2018-08-14T10:36:06.684Z,95.80
2018-08-14T10:38:38.121Z,95.50
2018-08-14T10:41:05.750Z,95.70
2018-08-14T10:43:46.330Z,95.60
2018-08-14T10:46:14.087Z,96.20
2018-08-14T10:48:41.664Z,96.60
2018-08-14T10:51:09.280Z,97.80
2018-08-14T10:53:37.421Z,98.60
2018-08-14T10:56:05.036Z,98.30
2018-08-14T10:58:36.215Z,98.20
2018-08-14T11:01:11.165Z,97.00
2018-08-14T11:03:39.180Z,95.90
2018-08-14T11:06:06.943Z,95.80
2018-08-14T11:08:34.681Z,95.20
2018-08-14T11:11:07.705Z,94.60
2018-08-14T11:13:36.380Z,93.50
2018-08-14T11:16:04.826Z,93.00
2018-08-14T11:18:32.471Z,93.00
2018-08-14T11:21:03.923Z,93.50
2018-08-14T11:23:32.389Z,93.00
2018-08-14T11:26:00.259Z,92.90
2018-08-14T11:28:28.217Z,93.50
2018-08-14T11:30:56.099Z,93.30
2018-08-14T11:34:14.857Z,93.60
2018-08-14T22:31:37.568Z,94.10
2018-08-14T22:34:05.203Z,99.90
2018-08-14T22:36:32.848Z,99.90
2018-08-14T22:39:00.492Z,99.90
2018-08-14T22:41:28.119Z,99.90
2018-08-14T22:43:55.787Z,99.90
2018-08-14T22:46:23.527Z,99.90
2018-08-14T22:48:51.160Z,99.90
2018-08-14T22:51:18.842Z,99.90
2018-08-14T22:53:46.463Z,99.90
2018-08-14T22:56:14.099Z,99.90
2018-08-14T22:58:41.758Z,99.90
2018-08-14T23:01:09.411Z,99.90
2018-08-14T23:03:37.116Z,99.90
2018-08-14T23:06:04.743Z,99.90
2018-08-14T23:08:32.440Z,99.90
2018-08-14T23:11:00.128Z,99.90
2018-08-14T23:13:27.761Z,99.90
2018-08-14T23:16:00.914Z,99.90
2018-08-14T23:18:28.576Z,99.90
2018-08-14T23:20:56.292Z,99.90
2018-08-14T23:23:23.974Z,99.90
2018-08-14T23:25:51.619Z,99.90
2018-08-14T23:28:19.300Z,99.90
2018-08-14T23:30:46.964Z,99.90
2018-08-14T23:33:14.647Z,99.90
2018-08-14T23:35:42.375Z,99.90
2018-08-14T23:38:10.058Z,99.90
2018-08-14T23:40:37.678Z,99.90
2018-08-14T23:43:05.310Z,99.90
2018-08-14T23:45:32.975Z,99.90
2018-08-14T23:48:00.599Z,99.90
2018-08-14T23:50:28.274Z,99.90
2018-08-14T23:52:55.892Z,99.90
2018-08-14T23:55:23.495Z,99.90
2018-08-14T23:57:51.122Z,99.90
